sensor_id;sensor_type;location;lat;lon;timestamp;P1;durP1;ratioP1;P2;durP2;ratioP2
74158;SDS011;62511;47.970;11.774;2022-11-15T00:01:47;6.55;;;3.60;;
74158;SDS011;62511;47.970;11.774;2022-11-15T00:04:13;5.05;;;2.88;;
74158;SDS011;62511;47.970;11.774;2022-11-15T00:06:39;6.20;;;3.22;;
74158;SDS011;62511;47.970;11.774;2022-11-15T00:09:05;6.32;;;3.10;;
74158;SDS011;62511;47.970;11.774;2022-11-15T00:11:31;8.27;;;3.70;;
74158;SDS011;62511;47.970;11.774;2022-11-15T00:13:57;6.10;;;3.50;;
74158;SDS011;62511;47.970;11.774;2022-11-15T00:16:23;5.38;;;3.65;;
74158;SDS011;62511;47.970;11.774;2022-11-15T00:18:51;4.90;;;2.88;;
74158;SDS011;62511;47.970;11.774;2022-11-15T00:21:17;4.75;;;3.15;;
74158;SDS011;62511;47.970;11.774;2022-11-15T00:23:43;5.53;;;2.72;;
74158;SDS011;62511;47.970;11.774;2022-11-15T00:26:10;4.63;;;2.85;;
74158;SDS011;62511;47.970;11.774;2022-11-15T00:31:05;4.53;;;2.47;;
74158;SDS011;62511;47.970;11.774;2022-11-15T00:33:31;6.97;;;3.17;;
74158;SDS011;62511;47.970;11.774;2022-11-15T00:36:04;4.72;;;3.05;;
74158;SDS011;62511;47.970;11.774;2022-11-15T00:38:36;9.50;;;3.30;;
74158;SDS011;62511;47.970;11.774;2022-11-15T00:41:02;6.40;;;3.33;;
74158;SDS011;62511;47.970;11.774;2022-11-15T00:43:29;12.05;;;3.08;;
74158;SDS011;62511;47.970;11.774;2022-11-15T00:45:55;4.82;;;3.15;;
74158;SDS011;62511;47.970;11.774;2022-11-15T00:48:21;5.13;;;3.17;;
74158;SDS011;62511;47.970;11.774;2022-11-15T00:50:48;6.53;;;3.55;;
74158;SDS011;62511;47.970;11.774;2022-11-15T00:53:14;12.05;;;3.40;;
74158;SDS011;62511;47.970;11.774;2022-11-15T00:55:40;6.63;;;2.90;;
74158;SDS011;62511;47.970;11.774;2022-11-15T00:58:06;6.82;;;3.63;;
74158;SDS011;62511;47.970;11.774;2022-11-15T01:00:33;6.00;;;3.30;;
74158;SDS011;62511;47.970;11.774;2022-11-15T01:03:00;5.63;;;3.38;;
74158;SDS011;62511;47.970;11.774;2022-11-15T01:05:26;4.68;;;2.60;;
74158;SDS011;62511;47.970;11.774;2022-11-15T01:07:56;7.05;;;2.78;;
74158;SDS011;62511;47.970;11.774;2022-11-15T01:10:23;5.25;;;2.83;;
74158;SDS011;62511;47.970;11.774;2022-11-15T01:12:50;3.72;;;2.53;;
74158;SDS011;62511;47.970;11.774;2022-11-15T01:15:17;5.57;;;2.75;;
74158;SDS011;62511;47.970;11.774;2022-11-15T01:17:43;6.25;;;2.75;;
74158;SDS011;62511;47.970;11.774;2022-11-15T01:20:09;3.60;;;2.28;;
74158;SDS011;62511;47.970;11.774;2022-11-15T01:22:35;3.80;;;2.35;;
74158;SDS011;62511;47.970;11.774;2022-11-15T01:25:01;2.65;;;1.75;;
74158;SDS011;62511;47.970;11.774;2022-11-15T01:27:27;7.97;;;2.28;;
74158;SDS011;62511;47.970;11.774;2022-11-15T01:29:53;3.92;;;2.80;;
74158;SDS011;62511;47.970;11.774;2022-11-15T01:32:19;3.22;;;2.28;;
74158;SDS011;62511;47.970;11.774;2022-11-15T01:34:45;2.35;;;1.77;;
74158;SDS011;62511;47.970;11.774;2022-11-15T01:37:11;4.60;;;2.70;;
74158;SDS011;62511;47.970;11.774;2022-11-15T01:39:37;4.65;;;2.40;;
74158;SDS011;62511;47.970;11.774;2022-11-15T01:42:03;3.75;;;2.35;;
74158;SDS011;62511;47.970;11.774;2022-11-15T01:44:48;3.33;;;2.03;;
74158;SDS011;62511;47.970;11.774;2022-11-15T01:49:44;3.25;;;2.00;;
74158;SDS011;62511;47.970;11.774;2022-11-15T01:52:13;4.45;;;2.72;;
74158;SDS011;62511;47.970;11.774;2022-11-15T01:54:40;4.43;;;3.10;;
74158;SDS011;62511;47.970;11.774;2022-11-15T01:57:08;5.50;;;2.55;;
74158;SDS011;62511;47.970;11.774;2022-11-15T01:59:36;7.32;;;3.53;;
74158;SDS011;62511;47.970;11.774;2022-11-15T02:02:03;4.53;;;2.15;;
74158;SDS011;62511;47.970;11.774;2022-11-15T02:04:32;5.28;;;2.65;;
74158;SDS011;62511;47.970;11.774;2022-11-15T02:06:59;5.13;;;2.70;;
74158;SDS011;62511;47.970;11.774;2022-11-15T02:09:27;4.13;;;2.63;;
74158;SDS011;62511;47.970;11.774;2022-11-15T02:11:53;5.07;;;2.45;;
74158;SDS011;62511;47.970;11.774;2022-11-15T02:14:20;3.38;;;2.05;;
74158;SDS011;62511;47.970;11.774;2022-11-15T02:16:54;5.13;;;2.33;;
74158;SDS011;62511;47.970;11.774;2022-11-15T02:32:20;4.82;;;2.63;;
74158;SDS011;62511;47.970;11.774;2022-11-15T02:42:19;4.25;;;2.58;;
74158;SDS011;62511;47.970;11.774;2022-11-15T02:45:07;3.80;;;2.60;;
74158;SDS011;62511;47.970;11.774;2022-11-15T02:47:34;4.32;;;2.65;;
74158;SDS011;62511;47.970;11.774;2022-11-15T02:50:02;4.22;;;2.60;;
74158;SDS011;62511;47.970;11.774;2022-11-15T02:52:30;3.38;;;2.35;;
74158;SDS011;62511;47.970;11.774;2022-11-15T02:54:57;3.53;;;1.85;;
74158;SDS011;62511;47.970;11.774;2022-11-15T02:57:29;2.80;;;1.98;;
74158;SDS011;62511;47.970;11.774;2022-11-15T03:05:08;3.70;;;2.17;;
74158;SDS011;62511;47.970;11.774;2022-11-15T03:10:24;2.95;;;1.98;;
74158;SDS011;62511;47.970;11.774;2022-11-15T03:17:51;2.92;;;1.85;;
74158;SDS011;62511;47.970;11.774;2022-11-15T03:20:19;3.10;;;1.98;;
74158;SDS011;62511;47.970;11.774;2022-11-15T03:22:45;3.63;;;2.13;;
74158;SDS011;62511;47.970;11.774;2022-11-15T03:25:16;4.88;;;2.67;;
74158;SDS011;62511;47.970;11.774;2022-11-15T03:27:44;5.65;;;2.33;;
74158;SDS011;62511;47.970;11.774;2022-11-15T03:30:12;5.25;;;2.78;;
74158;SDS011;62511;47.970;11.774;2022-11-15T03:32:40;3.92;;;2.10;;
74158;SDS011;62511;47.970;11.774;2022-11-15T03:35:12;6.25;;;2.53;;
74158;SDS011;62511;47.970;11.774;2022-11-15T03:37:56;3.42;;;2.17;;
74158;SDS011;62511;47.970;11.774;2022-11-15T03:41:11;3.85;;;2.08;;
74158;SDS011;62511;47.970;11.774;2022-11-15T03:45:41;3.97;;;2.20;;
74158;SDS011;62511;47.970;11.774;2022-11-15T03:48:19;5.20;;;2.22;;
74158;SDS011;62511;47.970;11.774;2022-11-15T03:50:47;4.18;;;1.90;;
74158;SDS011;62511;47.970;11.774;2022-11-15T03:53:13;3.50;;;2.00;;
74158;SDS011;62511;47.970;11.774;2022-11-15T03:55:40;2.90;;;2.13;;
74158;SDS011;62511;47.970;11.774;2022-11-15T03:58:06;7.97;;;3.85;;
74158;SDS011;62511;47.970;11.774;2022-11-15T04:00:32;6.22;;;2.25;;
74158;SDS011;62511;47.970;11.774;2022-11-15T04:02:59;4.00;;;2.42;;
74158;SDS011;62511;47.970;11.774;2022-11-15T04:05:30;3.28;;;2.20;;
74158;SDS011;62511;47.970;11.774;2022-11-15T04:07:56;4.15;;;2.45;;
74158;SDS011;62511;47.970;11.774;2022-11-15T04:10:22;4.53;;;2.35;;
74158;SDS011;62511;47.970;11.774;2022-11-15T04:12:48;5.85;;;2.65;;
74158;SDS011;62511;47.970;11.774;2022-11-15T04:15:18;5.32;;;2.50;;
74158;SDS011;62511;47.970;11.774;2022-11-15T04:17:45;3.60;;;2.20;;
74158;SDS011;62511;47.970;11.774;2022-11-15T04:20:13;4.30;;;2.58;;
74158;SDS011;62511;47.970;11.774;2022-11-15T04:22:58;3.40;;;2.00;;
74158;SDS011;62511;47.970;11.774;2022-11-15T04:25:43;2.72;;;2.20;;
74158;SDS011;62511;47.970;11.774;2022-11-15T04:28:10;3.97;;;1.95;;
74158;SDS011;62511;47.970;11.774;2022-11-15T04:30:36;3.95;;;2.33;;
74158;SDS011;62511;47.970;11.774;2022-11-15T04:33:03;3.92;;;2.00;;
74158;SDS011;62511;47.970;11.774;2022-11-15T04:35:29;2.42;;;2.15;;
74158;SDS011;62511;47.970;11.774;2022-11-15T04:37:56;2.80;;;1.70;;
74158;SDS011;62511;47.970;11.774;2022-11-15T04:40:22;4.25;;;2.22;;
74158;SDS011;62511;47.970;11.774;2022-11-15T04:42:48;2.58;;;1.90;;
74158;SDS011;62511;47.970;11.774;2022-11-15T04:45:14;5.50;;;2.65;;
74158;SDS011;62511;47.970;11.774;2022-11-15T04:47:42;3.97;;;2.58;;
74158;SDS011;62511;47.970;11.774;2022-11-15T04:50:08;3.45;;;2.22;;
74158;SDS011;62511;47.970;11.774;2022-11-15T04:52:37;2.80;;;2.00;;
74158;SDS011;62511;47.970;11.774;2022-11-15T04:55:04;4.25;;;2.10;;
74158;SDS011;62511;47.970;11.774;2022-11-15T04:57:30;2.42;;;2.00;;
74158;SDS011;62511;47.970;11.774;2022-11-15T04:59:56;2.65;;;1.90;;
74158;SDS011;62511;47.970;11.774;2022-11-15T05:02:22;5.80;;;2.45;;
74158;SDS011;62511;47.970;11.774;2022-11-15T05:04:48;3.05;;;2.22;;
74158;SDS011;62511;47.970;11.774;2022-11-15T05:07:14;6.03;;;3.20;;
74158;SDS011;62511;47.970;11.774;2022-11-15T05:09:42;7.38;;;3.60;;
74158;SDS011;62511;47.970;11.774;2022-11-15T05:12:07;3.70;;;1.83;;
74158;SDS011;62511;47.970;11.774;2022-11-15T05:14:33;3.83;;;2.30;;
74158;SDS011;62511;47.970;11.774;2022-11-15T05:16:59;5.03;;;2.50;;
74158;SDS011;62511;47.970;11.774;2022-11-15T05:19:26;15.93;;;5.40;;
74158;SDS011;62511;47.970;11.774;2022-11-15T05:21:51;17.33;;;8.27;;
74158;SDS011;62511;47.970;11.774;2022-11-15T05:24:17;14.88;;;7.95;;
74158;SDS011;62511;47.970;11.774;2022-11-15T05:26:43;8.85;;;4.65;;
74158;SDS011;62511;47.970;11.774;2022-11-15T05:29:10;4.82;;;3.10;;
74158;SDS011;62511;47.970;11.774;2022-11-15T05:31:38;4.38;;;2.67;;
74158;SDS011;62511;47.970;11.774;2022-11-15T05:34:08;3.50;;;1.98;;
74158;SDS011;62511;47.970;11.774;2022-11-15T05:36:43;3.03;;;2.67;;
74158;SDS011;62511;47.970;11.774;2022-11-15T05:39:10;4.82;;;3.08;;
74158;SDS011;62511;47.970;11.774;2022-11-15T05:41:37;6.47;;;3.22;;
74158;SDS011;62511;47.970;11.774;2022-11-15T05:44:05;5.90;;;2.85;;
74158;SDS011;62511;47.970;11.774;2022-11-15T05:46:32;5.53;;;3.13;;
74158;SDS011;62511;47.970;11.774;2022-11-15T05:48:58;2.92;;;2.13;;
74158;SDS011;62511;47.970;11.774;2022-11-15T05:51:26;4.80;;;1.95;;
74158;SDS011;62511;47.970;11.774;2022-11-15T05:53:55;4.40;;;2.20;;
74158;SDS011;62511;47.970;11.774;2022-11-15T05:56:22;11.77;;;3.28;;
74158;SDS011;62511;47.970;11.774;2022-11-15T05:58:48;6.10;;;2.50;;
74158;SDS011;62511;47.970;11.774;2022-11-15T06:01:14;5.47;;;3.10;;
74158;SDS011;62511;47.970;11.774;2022-11-15T06:03:40;13.20;;;3.65;;
74158;SDS011;62511;47.970;11.774;2022-11-15T06:06:06;13.52;;;6.03;;
74158;SDS011;62511;47.970;11.774;2022-11-15T06:08:32;35.00;;;10.93;;
74158;SDS011;62511;47.970;11.774;2022-11-15T06:11:03;19.70;;;4.88;;
74158;SDS011;62511;47.970;11.774;2022-11-15T06:13:29;26.65;;;6.40;;
74158;SDS011;62511;47.970;11.774;2022-11-15T06:15:55;18.27;;;6.60;;
74158;SDS011;62511;47.970;11.774;2022-11-15T06:18:21;14.45;;;5.47;;
74158;SDS011;62511;47.970;11.774;2022-11-15T06:20:47;10.63;;;3.75;;
74158;SDS011;62511;47.970;11.774;2022-11-15T06:23:13;5.50;;;2.88;;
74158;SDS011;62511;47.970;11.774;2022-11-15T06:25:39;3.97;;;2.20;;
74158;SDS011;62511;47.970;11.774;2022-11-15T06:28:05;5.82;;;2.80;;
74158;SDS011;62511;47.970;11.774;2022-11-15T06:30:32;4.82;;;2.53;;
74158;SDS011;62511;47.970;11.774;2022-11-15T06:33:03;4.30;;;1.75;;
74158;SDS011;62511;47.970;11.774;2022-11-15T06:35:30;4.88;;;1.92;;
74158;SDS011;62511;47.970;11.774;2022-11-15T06:37:59;5.88;;;3.38;;
74158;SDS011;62511;47.970;11.774;2022-11-15T06:40:27;7.53;;;4.38;;
74158;SDS011;62511;47.970;11.774;2022-11-15T06:42:57;3.72;;;2.10;;
74158;SDS011;62511;47.970;11.774;2022-11-15T06:45:23;2.35;;;1.77;;
74158;SDS011;62511;47.970;11.774;2022-11-15T06:47:49;3.22;;;1.90;;
74158;SDS011;62511;47.970;11.774;2022-11-15T06:50:15;3.95;;;2.40;;
74158;SDS011;62511;47.970;11.774;2022-11-15T06:52:41;12.55;;;5.55;;
74158;SDS011;62511;47.970;11.774;2022-11-15T06:55:07;9.40;;;3.88;;
74158;SDS011;62511;47.970;11.774;2022-11-15T06:57:33;3.85;;;2.70;;
74158;SDS011;62511;47.970;11.774;2022-11-15T06:59:59;11.13;;;4.60;;
74158;SDS011;62511;47.970;11.774;2022-11-15T07:02:25;9.13;;;4.25;;
74158;SDS011;62511;47.970;11.774;2022-11-15T07:04:51;5.03;;;3.03;;
74158;SDS011;62511;47.970;11.774;2022-11-15T07:07:17;5.78;;;2.88;;
74158;SDS011;62511;47.970;11.774;2022-11-15T07:09:43;5.13;;;2.60;;
74158;SDS011;62511;47.970;11.774;2022-11-15T07:12:09;6.07;;;2.95;;
74158;SDS011;62511;47.970;11.774;2022-11-15T07:14:35;7.00;;;4.00;;
74158;SDS011;62511;47.970;11.774;2022-11-15T07:17:03;8.82;;;4.45;;
74158;SDS011;62511;47.970;11.774;2022-11-15T07:19:29;8.13;;;3.75;;
74158;SDS011;62511;47.970;11.774;2022-11-15T07:21:55;8.52;;;4.68;;
74158;SDS011;62511;47.970;11.774;2022-11-15T07:24:21;7.45;;;3.97;;
74158;SDS011;62511;47.970;11.774;2022-11-15T07:26:47;7.93;;;4.15;;
74158;SDS011;62511;47.970;11.774;2022-11-15T07:29:13;8.02;;;4.85;;
74158;SDS011;62511;47.970;11.774;2022-11-15T07:31:39;5.47;;;4.18;;
74158;SDS011;62511;47.970;11.774;2022-11-15T07:34:05;11.18;;;6.10;;
74158;SDS011;62511;47.970;11.774;2022-11-15T07:36:31;9.10;;;6.25;;
74158;SDS011;62511;47.970;11.774;2022-11-15T07:38:57;7.07;;;5.75;;
74158;SDS011;62511;47.970;11.774;2022-11-15T07:41:23;9.00;;;5.25;;
74158;SDS011;62511;47.970;11.774;2022-11-15T07:43:52;6.72;;;4.20;;
74158;SDS011;62511;47.970;11.774;2022-11-15T07:46:18;10.45;;;4.97;;
74158;SDS011;62511;47.970;11.774;2022-11-15T07:48:46;7.30;;;4.15;;
74158;SDS011;62511;47.970;11.774;2022-11-15T07:51:12;6.90;;;3.83;;
74158;SDS011;62511;47.970;11.774;2022-11-15T07:53:42;7.45;;;3.00;;
74158;SDS011;62511;47.970;11.774;2022-11-15T07:56:09;10.48;;;3.85;;
74158;SDS011;62511;47.970;11.774;2022-11-15T07:58:35;8.32;;;3.47;;
74158;SDS011;62511;47.970;11.774;2022-11-15T08:01:05;7.50;;;2.88;;
74158;SDS011;62511;47.970;11.774;2022-11-15T08:03:32;4.03;;;2.60;;
74158;SDS011;62511;47.970;11.774;2022-11-15T08:05:58;4.63;;;2.80;;
74158;SDS011;62511;47.970;11.774;2022-11-15T08:08:24;5.57;;;2.45;;
74158;SDS011;62511;47.970;11.774;2022-11-15T08:10:51;4.30;;;2.50;;
74158;SDS011;62511;47.970;11.774;2022-11-15T08:13:17;6.30;;;2.47;;
74158;SDS011;62511;47.970;11.774;2022-11-15T08:15:44;5.18;;;3.15;;
74158;SDS011;62511;47.970;11.774;2022-11-15T08:18:11;6.53;;;3.15;;
74158;SDS011;62511;47.970;11.774;2022-11-15T08:20:37;5.57;;;3.30;;
74158;SDS011;62511;47.970;11.774;2022-11-15T08:23:04;8.38;;;3.22;;
74158;SDS011;62511;47.970;11.774;2022-11-15T08:25:30;7.38;;;3.70;;
74158;SDS011;62511;47.970;11.774;2022-11-15T08:27:59;20.70;;;8.48;;
74158;SDS011;62511;47.970;11.774;2022-11-15T08:30:25;24.60;;;10.25;;
74158;SDS011;62511;47.970;11.774;2022-11-15T08:32:52;12.60;;;5.80;;
74158;SDS011;62511;47.970;11.774;2022-11-15T08:35:21;18.98;;;8.55;;
74158;SDS011;62511;47.970;11.774;2022-11-15T08:37:47;8.35;;;4.93;;
74158;SDS011;62511;47.970;11.774;2022-11-15T08:40:14;11.70;;;6.13;;
74158;SDS011;62511;47.970;11.774;2022-11-15T08:42:40;7.97;;;5.18;;
74158;SDS011;62511;47.970;11.774;2022-11-15T08:45:08;6.95;;;4.13;;
74158;SDS011;62511;47.970;11.774;2022-11-15T08:50:00;5.35;;;3.13;;
74158;SDS011;62511;47.970;11.774;2022-11-15T08:52:26;5.88;;;3.50;;
74158;SDS011;62511;47.970;11.774;2022-11-15T08:54:52;5.47;;;3.30;;
74158;SDS011;62511;47.970;11.774;2022-11-15T08:57:18;5.60;;;3.80;;
74158;SDS011;62511;47.970;11.774;2022-11-15T08:59:44;5.10;;;3.03;;
74158;SDS011;62511;47.970;11.774;2022-11-15T09:02:12;5.18;;;3.40;;
74158;SDS011;62511;47.970;11.774;2022-11-15T09:04:40;4.72;;;3.33;;
74158;SDS011;62511;47.970;11.774;2022-11-15T09:07:08;4.72;;;2.85;;
74158;SDS011;62511;47.970;11.774;2022-11-15T09:09:34;3.55;;;2.33;;
74158;SDS011;62511;47.970;11.774;2022-11-15T09:12:01;3.20;;;1.98;;
74158;SDS011;62511;47.970;11.774;2022-11-15T09:14:27;5.38;;;2.30;;
74158;SDS011;62511;47.970;11.774;2022-11-15T09:16:53;5.78;;;3.35;;
74158;SDS011;62511;47.970;11.774;2022-11-15T09:19:19;4.72;;;2.72;;
74158;SDS011;62511;47.970;11.774;2022-11-15T09:21:45;5.40;;;2.80;;
74158;SDS011;62511;47.970;11.774;2022-11-15T09:24:12;4.15;;;2.30;;
74158;SDS011;62511;47.970;11.774;2022-11-15T09:26:39;4.55;;;2.25;;
74158;SDS011;62511;47.970;11.774;2022-11-15T09:29:06;3.17;;;2.05;;
74158;SDS011;62511;47.970;11.774;2022-11-15T09:31:34;2.40;;;1.98;;
74158;SDS011;62511;47.970;11.774;2022-11-15T09:34:00;3.05;;;1.70;;
74158;SDS011;62511;47.970;11.774;2022-11-15T09:36:32;2.78;;;1.70;;
74158;SDS011;62511;47.970;11.774;2022-11-15T09:38:58;4.13;;;2.05;;
74158;SDS011;62511;47.970;11.774;2022-11-15T09:47:17;3.97;;;2.10;;
74158;SDS011;62511;47.970;11.774;2022-11-15T09:49:34;2.28;;;1.55;;
74158;SDS011;62511;47.970;11.774;2022-11-15T09:52:01;2.08;;;1.73;;
74158;SDS011;62511;47.970;11.774;2022-11-15T09:54:31;2.92;;;2.00;;
74158;SDS011;62511;47.970;11.774;2022-11-15T10:04:40;2.65;;;2.00;;
74158;SDS011;62511;47.970;11.774;2022-11-15T10:09:39;2.33;;;1.83;;
74158;SDS011;62511;47.970;11.774;2022-11-15T10:12:08;3.08;;;1.88;;
74158;SDS011;62511;47.970;11.774;2022-11-15T10:14:34;2.85;;;1.77;;
74158;SDS011;62511;47.970;11.774;2022-11-15T10:17:14;4.18;;;2.33;;
74158;SDS011;62511;47.970;11.774;2022-11-15T10:19:52;2.50;;;1.70;;
74158;SDS011;62511;47.970;11.774;2022-11-15T10:27:37;3.28;;;1.30;;
74158;SDS011;62511;47.970;11.774;2022-11-15T10:30:10;2.53;;;1.58;;
74158;SDS011;62511;47.970;11.774;2022-11-15T10:32:36;2.95;;;1.98;;
74158;SDS011;62511;47.970;11.774;2022-11-15T10:35:15;1.90;;;1.38;;
74158;SDS011;62511;47.970;11.774;2022-11-15T10:37:44;2.40;;;1.52;;
74158;SDS011;62511;47.970;11.774;2022-11-15T10:40:25;2.55;;;1.80;;
74158;SDS011;62511;47.970;11.774;2022-11-15T10:45:53;3.35;;;1.85;;
74158;SDS011;62511;47.970;11.774;2022-11-15T10:48:20;5.30;;;1.60;;
74158;SDS011;62511;47.970;11.774;2022-11-15T10:50:47;3.72;;;2.08;;
74158;SDS011;62511;47.970;11.774;2022-11-15T10:53:25;2.38;;;1.70;;
74158;SDS011;62511;47.970;11.774;2022-11-15T10:55:55;2.50;;;1.98;;
74158;SDS011;62511;47.970;11.774;2022-11-15T10:58:38;2.30;;;1.67;;
74158;SDS011;62511;47.970;11.774;2022-11-15T11:01:11;2.92;;;1.52;;
74158;SDS011;62511;47.970;11.774;2022-11-15T11:03:38;2.38;;;1.75;;
74158;SDS011;62511;47.970;11.774;2022-11-15T11:08:30;3.65;;;1.67;;
74158;SDS011;62511;47.970;11.774;2022-11-15T11:10:59;5.88;;;1.90;;
74158;SDS011;62511;47.970;11.774;2022-11-15T11:18:38;4.57;;;2.22;;
74158;SDS011;62511;47.970;11.774;2022-11-15T11:21:10;3.72;;;2.20;;
74158;SDS011;62511;47.970;11.774;2022-11-15T11:23:47;3.13;;;1.92;;
74158;SDS011;62511;47.970;11.774;2022-11-15T11:26:40;4.43;;;2.50;;
74158;SDS011;62511;47.970;11.774;2022-11-15T11:34:48;3.72;;;1.90;;
74158;SDS011;62511;47.970;11.774;2022-11-15T11:40:05;3.30;;;1.98;;
74158;SDS011;62511;47.970;11.774;2022-11-15T11:45:26;3.70;;;2.10;;
74158;SDS011;62511;47.970;11.774;2022-11-15T11:48:07;1.70;;;1.60;;
74158;SDS011;62511;47.970;11.774;2022-11-15T11:50:36;2.40;;;1.92;;
74158;SDS011;62511;47.970;11.774;2022-11-15T11:55:32;3.72;;;2.20;;
74158;SDS011;62511;47.970;11.774;2022-11-15T12:00:53;5.50;;;2.30;;
74158;SDS011;62511;47.970;11.774;2022-11-15T12:03:28;2.47;;;1.70;;
74158;SDS011;62511;47.970;11.774;2022-11-15T12:05:57;5.03;;;2.20;;
74158;SDS011;62511;47.970;11.774;2022-11-15T12:10:54;4.05;;;2.63;;
74158;SDS011;62511;47.970;11.774;2022-11-15T12:13:24;4.30;;;1.90;;
74158;SDS011;62511;47.970;11.774;2022-11-15T12:16:11;5.80;;;3.22;;
74158;SDS011;62511;47.970;11.774;2022-11-15T12:18:38;4.88;;;2.15;;
74158;SDS011;62511;47.970;11.774;2022-11-15T12:21:06;3.00;;;2.50;;
74158;SDS011;62511;47.970;11.774;2022-11-15T12:23:47;4.00;;;2.50;;
74158;SDS011;62511;47.970;11.774;2022-11-15T12:26:19;5.75;;;2.42;;
74158;SDS011;62511;47.970;11.774;2022-11-15T12:28:51;5.00;;;2.30;;
74158;SDS011;62511;47.970;11.774;2022-11-15T12:34:00;3.08;;;1.92;;
74158;SDS011;62511;47.970;11.774;2022-11-15T12:39:01;2.47;;;1.70;;
74158;SDS011;62511;47.970;11.774;2022-11-15T12:41:37;3.75;;;1.58;;
74158;SDS011;62511;47.970;11.774;2022-11-15T12:44:03;2.80;;;1.75;;
74158;SDS011;62511;47.970;11.774;2022-11-15T13:04:46;3.03;;;1.83;;
74158;SDS011;62511;47.970;11.774;2022-11-15T13:09:57;2.80;;;1.42;;
74158;SDS011;62511;47.970;11.774;2022-11-15T13:17:26;2.63;;;1.85;;
74158;SDS011;62511;47.970;11.774;2022-11-15T13:25:04;1.98;;;1.50;;
74158;SDS011;62511;47.970;11.774;2022-11-15T13:27:40;3.28;;;1.85;;
74158;SDS011;62511;47.970;11.774;2022-11-15T13:30:23;2.63;;;1.40;;
74158;SDS011;62511;47.970;11.774;2022-11-15T13:32:49;2.50;;;1.50;;
74158;SDS011;62511;47.970;11.774;2022-11-15T13:35:22;3.15;;;1.60;;
74158;SDS011;62511;47.970;11.774;2022-11-15T13:37:49;2.92;;;1.40;;
74158;SDS011;62511;47.970;11.774;2022-11-15T13:40:24;3.83;;;2.17;;
74158;SDS011;62511;47.970;11.774;2022-11-15T13:42:53;2.85;;;1.60;;
74158;SDS011;62511;47.970;11.774;2022-11-15T13:45:20;2.88;;;1.80;;
74158;SDS011;62511;47.970;11.774;2022-11-15T13:47:56;3.13;;;1.60;;
74158;SDS011;62511;47.970;11.774;2022-11-15T13:50:29;2.50;;;1.42;;
74158;SDS011;62511;47.970;11.774;2022-11-15T13:52:58;2.15;;;1.60;;
74158;SDS011;62511;47.970;11.774;2022-11-15T13:55:26;3.05;;;1.65;;
74158;SDS011;62511;47.970;11.774;2022-11-15T14:00:33;2.03;;;1.50;;
74158;SDS011;62511;47.970;11.774;2022-11-15T14:05:39;2.95;;;1.90;;
74158;SDS011;62511;47.970;11.774;2022-11-15T14:08:23;2.70;;;1.90;;
74158;SDS011;62511;47.970;11.774;2022-11-15T14:11:05;3.50;;;2.05;;
74158;SDS011;62511;47.970;11.774;2022-11-15T14:13:32;2.30;;;1.60;;
74158;SDS011;62511;47.970;11.774;2022-11-15T14:21:10;2.25;;;1.63;;
74158;SDS011;62511;47.970;11.774;2022-11-15T14:23:37;2.75;;;1.77;;
74158;SDS011;62511;47.970;11.774;2022-11-15T14:26:03;3.25;;;1.92;;
74158;SDS011;62511;47.970;11.774;2022-11-15T14:28:32;3.63;;;2.30;;
74158;SDS011;62511;47.970;11.774;2022-11-15T14:31:06;2.60;;;1.95;;
74158;SDS011;62511;47.970;11.774;2022-11-15T14:33:33;2.63;;;1.63;;
74158;SDS011;62511;47.970;11.774;2022-11-15T14:36:19;2.70;;;1.90;;
74158;SDS011;62511;47.970;11.774;2022-11-15T14:38:49;5.20;;;2.58;;
74158;SDS011;62511;47.970;11.774;2022-11-15T14:41:24;4.82;;;2.83;;
74158;SDS011;62511;47.970;11.774;2022-11-15T14:43:57;8.55;;;4.63;;
74158;SDS011;62511;47.970;11.774;2022-11-15T14:46:23;3.00;;;1.98;;
74158;SDS011;62511;47.970;11.774;2022-11-15T14:48:49;3.63;;;2.40;;
74158;SDS011;62511;47.970;11.774;2022-11-15T14:51:16;5.43;;;2.33;;
74158;SDS011;62511;47.970;11.774;2022-11-15T14:53:42;4.13;;;2.00;;
74158;SDS011;62511;47.970;11.774;2022-11-15T14:56:09;3.33;;;2.03;;
74158;SDS011;62511;47.970;11.774;2022-11-15T14:58:36;2.70;;;2.03;;
74158;SDS011;62511;47.970;11.774;2022-11-15T15:01:09;4.05;;;2.13;;
74158;SDS011;62511;47.970;11.774;2022-11-15T15:03:38;3.38;;;2.10;;
74158;SDS011;62511;47.970;11.774;2022-11-15T15:06:04;2.80;;;1.45;;
74158;SDS011;62511;47.970;11.774;2022-11-15T15:08:31;4.03;;;1.88;;
74158;SDS011;62511;47.970;11.774;2022-11-15T15:10:57;2.70;;;1.63;;
74158;SDS011;62511;47.970;11.774;2022-11-15T15:13:27;4.07;;;1.88;;
74158;SDS011;62511;47.970;11.774;2022-11-15T15:15:55;4.05;;;1.95;;
74158;SDS011;62511;47.970;11.774;2022-11-15T15:18:21;7.13;;;2.72;;
74158;SDS011;62511;47.970;11.774;2022-11-15T15:20:49;4.03;;;2.10;;
74158;SDS011;62511;47.970;11.774;2022-11-15T15:23:18;5.15;;;2.10;;
74158;SDS011;62511;47.970;11.774;2022-11-15T15:25:45;4.93;;;1.95;;
74158;SDS011;62511;47.970;11.774;2022-11-15T15:28:12;4.38;;;2.22;;
74158;SDS011;62511;47.970;11.774;2022-11-15T15:33:04;5.95;;;2.28;;
74158;SDS011;62511;47.970;11.774;2022-11-15T15:35:31;6.07;;;2.80;;
74158;SDS011;62511;47.970;11.774;2022-11-15T15:37:58;12.35;;;5.88;;
74158;SDS011;62511;47.970;11.774;2022-11-15T15:40:24;27.38;;;10.77;;
74158;SDS011;62511;47.970;11.774;2022-11-15T15:42:51;18.98;;;8.40;;
74158;SDS011;62511;47.970;11.774;2022-11-15T15:45:17;4.88;;;2.72;;
74158;SDS011;62511;47.970;11.774;2022-11-15T15:47:44;4.53;;;2.83;;
74158;SDS011;62511;47.970;11.774;2022-11-15T15:50:55;9.05;;;4.07;;
74158;SDS011;62511;47.970;11.774;2022-11-15T15:52:58;7.90;;;4.30;;
74158;SDS011;62511;47.970;11.774;2022-11-15T15:55:27;7.00;;;3.35;;
74158;SDS011;62511;47.970;11.774;2022-11-15T15:57:54;6.07;;;4.57;;
74158;SDS011;62511;47.970;11.774;2022-11-15T16:00:21;8.40;;;4.63;;
74158;SDS011;62511;47.970;11.774;2022-11-15T16:02:48;15.80;;;7.13;;
74158;SDS011;62511;47.970;11.774;2022-11-15T16:05:14;19.48;;;8.40;;
74158;SDS011;62511;47.970;11.774;2022-11-15T16:07:40;19.27;;;7.47;;
74158;SDS011;62511;47.970;11.774;2022-11-15T16:10:24;8.00;;;3.97;;
74158;SDS011;62511;47.970;11.774;2022-11-15T16:12:50;13.35;;;5.97;;
74158;SDS011;62511;47.970;11.774;2022-11-15T16:15:17;8.10;;;4.28;;
74158;SDS011;62511;47.970;11.774;2022-11-15T16:17:45;7.97;;;3.53;;
74158;SDS011;62511;47.970;11.774;2022-11-15T16:20:22;5.22;;;2.38;;
74158;SDS011;62511;47.970;11.774;2022-11-15T16:22:48;6.68;;;3.42;;
74158;SDS011;62511;47.970;11.774;2022-11-15T16:25:14;8.80;;;4.57;;
74158;SDS011;62511;47.970;11.774;2022-11-15T16:27:41;13.18;;;7.47;;
74158;SDS011;62511;47.970;11.774;2022-11-15T16:30:17;8.02;;;4.00;;
74158;SDS011;62511;47.970;11.774;2022-11-15T16:32:45;9.52;;;5.18;;
74158;SDS011;62511;47.970;11.774;2022-11-15T16:35:11;12.40;;;5.43;;
74158;SDS011;62511;47.970;11.774;2022-11-15T16:37:37;13.48;;;5.43;;
74158;SDS011;62511;47.970;11.774;2022-11-15T16:40:17;9.85;;;5.28;;
74158;SDS011;62511;47.970;11.774;2022-11-15T16:42:44;21.35;;;9.90;;
74158;SDS011;62511;47.970;11.774;2022-11-15T16:45:11;14.25;;;7.60;;
74158;SDS011;62511;47.970;11.774;2022-11-15T16:47:38;10.70;;;5.85;;
74158;SDS011;62511;47.970;11.774;2022-11-15T16:50:04;14.32;;;7.63;;
74158;SDS011;62511;47.970;11.774;2022-11-15T16:52:30;17.25;;;9.13;;
74158;SDS011;62511;47.970;11.774;2022-11-15T16:54:56;28.02;;;15.98;;
74158;SDS011;62511;47.970;11.774;2022-11-15T16:57:22;17.95;;;10.45;;
74158;SDS011;62511;47.970;11.774;2022-11-15T16:59:51;13.70;;;7.72;;
74158;SDS011;62511;47.970;11.774;2022-11-15T17:02:21;11.43;;;6.68;;
74158;SDS011;62511;47.970;11.774;2022-11-15T17:04:50;8.63;;;4.63;;